createdAt,value
2018-11-10T00:06:30.802Z,44.55
2018-11-10T00:26:13.321Z,50.43
2018-11-10T00:45:54.512Z,51.80
2018-11-10T01:05:46.303Z,49.90
2018-11-10T01:25:31.088Z,48.63
2018-11-10T01:45:22.665Z,52.50
2018-11-10T02:05:17.065Z,53.87
2018-11-10T02:25:03.437Z,46.00
2018-11-10T02:44:49.476Z,52.48
2018-11-10T03:04:38.937Z,49.30
2018-11-10T03:24:33.763Z,55.20
2018-11-10T03:44:21.210Z,52.50
2018-11-10T04:04:17.248Z,52.20
2018-11-10T04:24:05.504Z,56.53
2018-11-10T04:43:47.726Z,51.63
2018-11-10T05:03:42.717Z,64.10
2018-11-10T05:23:31.318Z,58.40
2018-11-10T05:43:17.180Z,58.25
2018-11-10T06:03:03.954Z,53.10
2018-11-10T06:22:47.647Z,50.78
2018-11-10T06:42:42.475Z,51.58
2018-11-10T07:02:35.656Z,51.98
2018-11-10T07:22:19.980Z,53.10
2018-11-10T07:42:14.214Z,56.75
2018-11-10T08:02:00.428Z,58.90
2018-11-10T08:21:56.428Z,55.13
2018-11-10T08:41:50.201Z,51.93
2018-11-10T09:01:37.020Z,42.10
2018-11-10T09:21:23.335Z,39.20
2018-11-10T09:41:09.894Z,34.90
2018-11-10T10:01:06.476Z,34.43
2018-11-10T10:20:54.061Z,32.97
2018-11-10T10:40:38.344Z,32.20
2018-11-10T11:21:48.666Z,25.40
2018-11-10T11:41:41.833Z,24.07
2018-11-10T12:01:27.226Z,25.90
2018-11-10T12:21:19.978Z,25.10
2018-11-10T12:41:13.450Z,24.37
2018-11-10T13:01:00.592Z,24.37
2018-11-10T13:20:25.805Z,23.70
2018-11-10T13:40:19.077Z,20.70
2018-11-10T14:00:09.377Z,21.07
2018-11-10T14:19:51.042Z,21.40
2018-11-10T14:39:44.251Z,21.75
2018-11-10T14:59:37.638Z,24.90
2018-11-10T15:19:33.874Z,30.65
2018-11-10T15:39:21.276Z,35.33
2018-11-10T15:59:07.032Z,41.92
2018-11-10T16:18:52.085Z,31.93
2018-11-10T16:38:43.432Z,34.18
2018-11-10T16:58:36.361Z,41.58
2018-11-10T17:18:31.200Z,35.30
2018-11-10T17:38:28.030Z,42.13
2018-11-10T17:58:10.704Z,33.13
2018-11-10T18:18:03.441Z,29.67
2018-11-10T18:37:50.271Z,37.70
2018-11-10T18:57:37.473Z,34.13
2018-11-10T19:17:28.857Z,33.30
2018-11-10T19:37:23.645Z,30.82
2018-11-10T19:57:07.432Z,27.45
2018-11-10T20:17:00.231Z,28.47
2018-11-10T20:36:45.631Z,28.92
2018-11-10T20:56:27.341Z,29.50
2018-11-10T21:16:21.445Z,30.57
2018-11-10T21:36:01.122Z,32.48
2018-11-10T21:55:56.033Z,53.98
2018-11-10T22:15:48.169Z,50.52
2018-11-10T22:35:45.004Z,63.73
2018-11-10T22:55:33.262Z,56.50
2018-11-10T23:15:26.176Z,62.27
2018-11-10T23:35:23.029Z,58.65
2018-11-10T23:55:21.896Z,61.05
